sensor_id;sensor_type;location;lat;lon;timestamp;P1;durP1;ratioP1;P2;durP2;ratioP2
20794;SDS011;28087;-33.874;151.240;2022-08-16T00:01:33;1.88;;;0.63;;
20794;SDS011;28087;-33.874;151.240;2022-08-16T00:04:10;3.47;;;0.63;;
20794;SDS011;28087;-33.874;151.240;2022-08-16T00:06:49;1.08;;;0.50;;
20794;SDS011;28087;-33.874;151.240;2022-08-16T00:09:28;3.33;;;0.60;;
20794;SDS011;28087;-33.874;151.240;2022-08-16T00:12:04;2.17;;;0.73;;
20794;SDS011;28087;-33.874;151.240;2022-08-16T00:14:46;2.10;;;0.60;;
20794;SDS011;28087;-33.874;151.240;2022-08-16T00:17:26;4.03;;;0.80;;
20794;SDS011;28087;-33.874;151.240;2022-08-16T00:20:23;2.10;;;0.68;;
20794;SDS011;28087;-33.874;151.240;2022-08-16T00:23:00;3.85;;;0.80;;
20794;SDS011;28087;-33.874;151.240;2022-08-16T00:25:41;2.47;;;0.80;;
20794;SDS011;28087;-33.874;151.240;2022-08-16T00:28:37;3.15;;;0.82;;
20794;SDS011;28087;-33.874;151.240;2022-08-16T00:31:15;2.60;;;0.70;;
20794;SDS011;28087;-33.874;151.240;2022-08-16T00:33:53;16.67;;;1.23;;
20794;SDS011;28087;-33.874;151.240;2022-08-16T00:36:33;6.88;;;0.70;;
20794;SDS011;28087;-33.874;151.240;2022-08-16T00:39:16;5.38;;;1.27;;
20794;SDS011;28087;-33.874;151.240;2022-08-16T00:41:54;5.35;;;1.02;;
20794;SDS011;28087;-33.874;151.240;2022-08-16T00:44:31;3.28;;;0.65;;
20794;SDS011;28087;-33.874;151.240;2022-08-16T00:47:14;2.40;;;0.63;;
20794;SDS011;28087;-33.874;151.240;2022-08-16T00:49:53;1.88;;;0.80;;
20794;SDS011;28087;-33.874;151.240;2022-08-16T00:52:29;3.35;;;0.80;;
20794;SDS011;28087;-33.874;151.240;2022-08-16T00:55:07;4.70;;;0.70;;
20794;SDS011;28087;-33.874;151.240;2022-08-16T00:57:49;2.03;;;0.70;;
20794;SDS011;28087;-33.874;151.240;2022-08-16T01:00:29;3.13;;;0.70;;
20794;SDS011;28087;-33.874;151.240;2022-08-16T01:03:08;1.88;;;0.57;;
20794;SDS011;28087;-33.874;151.240;2022-08-16T01:05:59;1.80;;;0.40;;
20794;SDS011;28087;-33.874;151.240;2022-08-16T01:08:57;1.13;;;0.60;;
20794;SDS011;28087;-33.874;151.240;2022-08-16T01:11:37;2.15;;;0.60;;
20794;SDS011;28087;-33.874;151.240;2022-08-16T01:14:27;1.77;;;0.60;;
20794;SDS011;28087;-33.874;151.240;2022-08-16T01:17:12;1.50;;;0.57;;
20794;SDS011;28087;-33.874;151.240;2022-08-16T01:19:53;0.82;;;0.50;;
20794;SDS011;28087;-33.874;151.240;2022-08-16T01:22:54;1.70;;;0.60;;
20794;SDS011;28087;-33.874;151.240;2022-08-16T01:25:41;1.67;;;0.60;;
20794;SDS011;28087;-33.874;151.240;2022-08-16T01:28:40;1.70;;;0.70;;
20794;SDS011;28087;-33.874;151.240;2022-08-16T01:31:18;1.10;;;0.60;;
20794;SDS011;28087;-33.874;151.240;2022-08-16T01:34:00;3.15;;;0.60;;
20794;SDS011;28087;-33.874;151.240;2022-08-16T01:36:57;1.30;;;0.50;;
20794;SDS011;28087;-33.874;151.240;2022-08-16T01:39:39;1.98;;;0.60;;
20794;SDS011;28087;-33.874;151.240;2022-08-16T01:42:21;2.42;;;0.60;;
20794;SDS011;28087;-33.874;151.240;2022-08-16T01:44:59;1.65;;;0.50;;
20794;SDS011;28087;-33.874;151.240;2022-08-16T01:47:36;3.78;;;0.65;;
20794;SDS011;28087;-33.874;151.240;2022-08-16T01:50:22;1.75;;;0.47;;
20794;SDS011;28087;-33.874;151.240;2022-08-16T01:53:19;2.47;;;0.50;;
20794;SDS011;28087;-33.874;151.240;2022-08-16T01:56:19;1.02;;;0.50;;
20794;SDS011;28087;-33.874;151.240;2022-08-16T01:59:00;4.00;;;0.60;;
20794;SDS011;28087;-33.874;151.240;2022-08-16T02:01:46;1.45;;;0.80;;
20794;SDS011;28087;-33.874;151.240;2022-08-16T02:04:30;1.70;;;0.50;;
20794;SDS011;28087;-33.874;151.240;2022-08-16T02:07:23;1.73;;;0.50;;
20794;SDS011;28087;-33.874;151.240;2022-08-16T02:10:00;1.58;;;0.60;;
20794;SDS011;28087;-33.874;151.240;2022-08-16T02:12:42;1.75;;;0.60;;
20794;SDS011;28087;-33.874;151.240;2022-08-16T02:15:32;1.20;;;0.50;;
20794;SDS011;28087;-33.874;151.240;2022-08-16T02:18:13;1.80;;;0.60;;
20794;SDS011;28087;-33.874;151.240;2022-08-16T02:20:49;0.90;;;0.57;;
20794;SDS011;28087;-33.874;151.240;2022-08-16T02:23:28;2.20;;;0.60;;
20794;SDS011;28087;-33.874;151.240;2022-08-16T02:26:08;2.22;;;0.75;;
20794;SDS011;28087;-33.874;151.240;2022-08-16T02:28:47;2.30;;;0.57;;
20794;SDS011;28087;-33.874;151.240;2022-08-16T02:31:27;3.50;;;1.00;;
20794;SDS011;28087;-33.874;151.240;2022-08-16T02:34:25;8.60;;;2.40;;
20794;SDS011;28087;-33.874;151.240;2022-08-16T02:37:11;3.85;;;1.30;;
20794;SDS011;28087;-33.874;151.240;2022-08-16T02:39:49;2.55;;;0.60;;
20794;SDS011;28087;-33.874;151.240;2022-08-16T02:42:31;0.65;;;0.40;;
20794;SDS011;28087;-33.874;151.240;2022-08-16T02:45:09;2.17;;;0.50;;
20794;SDS011;28087;-33.874;151.240;2022-08-16T02:47:48;1.77;;;0.60;;
20794;SDS011;28087;-33.874;151.240;2022-08-16T02:50:45;4.63;;;0.50;;
20794;SDS011;28087;-33.874;151.240;2022-08-16T02:53:42;1.10;;;0.50;;
20794;SDS011;28087;-33.874;151.240;2022-08-16T02:56:24;0.85;;;0.47;;
20794;SDS011;28087;-33.874;151.240;2022-08-16T02:59:02;2.80;;;0.50;;
20794;SDS011;28087;-33.874;151.240;2022-08-16T03:01:43;0.98;;;0.50;;
20794;SDS011;28087;-33.874;151.240;2022-08-16T03:04:30;1.20;;;0.50;;
20794;SDS011;28087;-33.874;151.240;2022-08-16T03:07:22;1.48;;;0.70;;
20794;SDS011;28087;-33.874;151.240;2022-08-16T03:10:07;1.05;;;0.47;;
20794;SDS011;28087;-33.874;151.240;2022-08-16T03:12:48;1.80;;;0.50;;
20794;SDS011;28087;-33.874;151.240;2022-08-16T03:15:28;2.03;;;0.70;;
20794;SDS011;28087;-33.874;151.240;2022-08-16T03:18:04;2.15;;;0.70;;
20794;SDS011;28087;-33.874;151.240;2022-08-16T03:21:04;2.08;;;0.60;;
20794;SDS011;28087;-33.874;151.240;2022-08-16T03:23:48;1.08;;;0.45;;
20794;SDS011;28087;-33.874;151.240;2022-08-16T03:26:29;0.85;;;0.50;;
20794;SDS011;28087;-33.874;151.240;2022-08-16T03:29:07;1.50;;;0.50;;
20794;SDS011;28087;-33.874;151.240;2022-08-16T03:31:47;3.03;;;0.50;;
20794;SDS011;28087;-33.874;151.240;2022-08-16T03:34:28;1.20;;;0.50;;
20794;SDS011;28087;-33.874;151.240;2022-08-16T03:37:10;2.10;;;0.55;;
20794;SDS011;28087;-33.874;151.240;2022-08-16T03:39:50;1.67;;;0.47;;
20794;SDS011;28087;-33.874;151.240;2022-08-16T03:42:32;2.72;;;0.50;;
20794;SDS011;28087;-33.874;151.240;2022-08-16T03:45:31;0.88;;;0.47;;
20794;SDS011;28087;-33.874;151.240;2022-08-16T03:48:09;3.40;;;0.70;;
20794;SDS011;28087;-33.874;151.240;2022-08-16T03:50:48;1.58;;;0.50;;
20794;SDS011;28087;-33.874;151.240;2022-08-16T03:53:35;1.40;;;0.60;;
20794;SDS011;28087;-33.874;151.240;2022-08-16T03:56:11;1.75;;;0.50;;
20794;SDS011;28087;-33.874;151.240;2022-08-16T03:58:51;2.40;;;0.60;;
20794;SDS011;28087;-33.874;151.240;2022-08-16T04:01:34;2.83;;;0.70;;
20794;SDS011;28087;-33.874;151.240;2022-08-16T04:04:11;2.67;;;0.50;;
20794;SDS011;28087;-33.874;151.240;2022-08-16T04:07:04;2.75;;;0.55;;
20794;SDS011;28087;-33.874;151.240;2022-08-16T04:09:46;1.35;;;0.60;;
20794;SDS011;28087;-33.874;151.240;2022-08-16T04:12:25;0.35;;;0.35;;
20794;SDS011;28087;-33.874;151.240;2022-08-16T04:15:23;1.98;;;0.50;;
20794;SDS011;28087;-33.874;151.240;2022-08-16T04:18:27;1.48;;;0.63;;
20794;SDS011;28087;-33.874;151.240;2022-08-16T04:21:08;1.90;;;0.50;;
20794;SDS011;28087;-33.874;151.240;2022-08-16T04:24:00;2.20;;;0.50;;
20794;SDS011;28087;-33.874;151.240;2022-08-16T04:26:40;3.13;;;0.60;;
20794;SDS011;28087;-33.874;151.240;2022-08-16T04:29:18;2.15;;;0.50;;
20794;SDS011;28087;-33.874;151.240;2022-08-16T04:32:12;0.85;;;0.40;;
20794;SDS011;28087;-33.874;151.240;2022-08-16T04:34:53;2.00;;;0.70;;
20794;SDS011;28087;-33.874;151.240;2022-08-16T04:37:38;1.63;;;0.60;;
20794;SDS011;28087;-33.874;151.240;2022-08-16T04:40:31;1.33;;;0.50;;
20794;SDS011;28087;-33.874;151.240;2022-08-16T04:43:13;2.63;;;0.50;;
20794;SDS011;28087;-33.874;151.240;2022-08-16T04:45:49;1.05;;;0.40;;
20794;SDS011;28087;-33.874;151.240;2022-08-16T04:48:37;2.58;;;0.30;;
20794;SDS011;28087;-33.874;151.240;2022-08-16T04:51:15;2.17;;;0.40;;
20794;SDS011;28087;-33.874;151.240;2022-08-16T04:53:54;1.58;;;0.30;;
20794;SDS011;28087;-33.874;151.240;2022-08-16T04:56:33;0.57;;;0.40;;
20794;SDS011;28087;-33.874;151.240;2022-08-16T04:59:16;2.38;;;0.40;;
20794;SDS011;28087;-33.874;151.240;2022-08-16T05:01:57;0.95;;;0.30;;
20794;SDS011;28087;-33.874;151.240;2022-08-16T05:04:55;1.65;;;0.40;;
20794;SDS011;28087;-33.874;151.240;2022-08-16T05:07:32;2.55;;;0.55;;
20794;SDS011;28087;-33.874;151.240;2022-08-16T05:10:31;1.73;;;0.63;;
20794;SDS011;28087;-33.874;151.240;2022-08-16T05:13:07;2.20;;;0.60;;
20794;SDS011;28087;-33.874;151.240;2022-08-16T05:15:46;1.63;;;0.50;;
20794;SDS011;28087;-33.874;151.240;2022-08-16T05:18:25;1.23;;;0.32;;
20794;SDS011;28087;-33.874;151.240;2022-08-16T05:21:04;1.23;;;0.50;;
20794;SDS011;28087;-33.874;151.240;2022-08-16T05:23:48;2.65;;;0.50;;
20794;SDS011;28087;-33.874;151.240;2022-08-16T05:26:31;1.55;;;0.60;;
20794;SDS011;28087;-33.874;151.240;2022-08-16T05:29:18;0.90;;;0.43;;
20794;SDS011;28087;-33.874;151.240;2022-08-16T05:32:21;1.73;;;0.40;;
20794;SDS011;28087;-33.874;151.240;2022-08-16T05:35:04;2.08;;;0.60;;
20794;SDS011;28087;-33.874;151.240;2022-08-16T05:38:04;3.53;;;0.70;;
20794;SDS011;28087;-33.874;151.240;2022-08-16T05:41:05;1.52;;;0.50;;
20794;SDS011;28087;-33.874;151.240;2022-08-16T05:43:46;1.33;;;0.50;;
20794;SDS011;28087;-33.874;151.240;2022-08-16T05:46:36;1.23;;;0.50;;
20794;SDS011;28087;-33.874;151.240;2022-08-16T05:49:20;1.33;;;0.40;;
20794;SDS011;28087;-33.874;151.240;2022-08-16T05:52:11;1.63;;;0.40;;
20794;SDS011;28087;-33.874;151.240;2022-08-16T05:54:50;1.90;;;0.40;;
20794;SDS011;28087;-33.874;151.240;2022-08-16T05:57:33;2.22;;;0.47;;
20794;SDS011;28087;-33.874;151.240;2022-08-16T06:00:22;1.70;;;0.60;;
20794;SDS011;28087;-33.874;151.240;2022-08-16T06:02:59;2.58;;;0.50;;
20794;SDS011;28087;-33.874;151.240;2022-08-16T06:05:58;1.83;;;0.50;;
20794;SDS011;28087;-33.874;151.240;2022-08-16T06:08:38;2.38;;;0.55;;
20794;SDS011;28087;-33.874;151.240;2022-08-16T06:11:16;4.07;;;0.70;;
20794;SDS011;28087;-33.874;151.240;2022-08-16T06:13:58;4.13;;;1.15;;
20794;SDS011;28087;-33.874;151.240;2022-08-16T06:16:40;3.78;;;0.70;;
20794;SDS011;28087;-33.874;151.240;2022-08-16T06:19:21;3.28;;;0.60;;
20794;SDS011;28087;-33.874;151.240;2022-08-16T06:22:13;1.63;;;0.60;;
20794;SDS011;28087;-33.874;151.240;2022-08-16T06:25:10;2.65;;;0.73;;
20794;SDS011;28087;-33.874;151.240;2022-08-16T06:28:04;2.13;;;0.40;;
20794;SDS011;28087;-33.874;151.240;2022-08-16T06:31:03;2.92;;;0.60;;
20794;SDS011;28087;-33.874;151.240;2022-08-16T06:33:46;2.22;;;0.65;;
20794;SDS011;28087;-33.874;151.240;2022-08-16T06:36:22;2.10;;;0.50;;
20794;SDS011;28087;-33.874;151.240;2022-08-16T06:39:13;1.85;;;0.50;;
20794;SDS011;28087;-33.874;151.240;2022-08-16T06:41:59;1.88;;;0.50;;
20794;SDS011;28087;-33.874;151.240;2022-08-16T06:44:54;1.88;;;0.52;;
20794;SDS011;28087;-33.874;151.240;2022-08-16T06:47:40;1.10;;;0.47;;
20794;SDS011;28087;-33.874;151.240;2022-08-16T06:50:28;2.08;;;0.50;;
20794;SDS011;28087;-33.874;151.240;2022-08-16T06:53:09;2.92;;;0.70;;
20794;SDS011;28087;-33.874;151.240;2022-08-16T06:56:04;1.67;;;0.60;;
20794;SDS011;28087;-33.874;151.240;2022-08-16T06:59:02;1.02;;;0.60;;
20794;SDS011;28087;-33.874;151.240;2022-08-16T07:01:48;3.75;;;0.50;;
20794;SDS011;28087;-33.874;151.240;2022-08-16T07:04:28;2.20;;;0.60;;
20794;SDS011;28087;-33.874;151.240;2022-08-16T07:07:14;2.90;;;0.88;;
20794;SDS011;28087;-33.874;151.240;2022-08-16T07:10:04;2.83;;;0.60;;
20794;SDS011;28087;-33.874;151.240;2022-08-16T07:12:44;2.75;;;0.70;;
20794;SDS011;28087;-33.874;151.240;2022-08-16T07:15:41;1.90;;;0.60;;
20794;SDS011;28087;-33.874;151.240;2022-08-16T07:18:26;2.53;;;0.70;;
20794;SDS011;28087;-33.874;151.240;2022-08-16T07:21:04;4.13;;;0.82;;
20794;SDS011;28087;-33.874;151.240;2022-08-16T07:23:43;2.47;;;0.60;;
20794;SDS011;28087;-33.874;151.240;2022-08-16T07:26:26;2.03;;;0.77;;
20794;SDS011;28087;-33.874;151.240;2022-08-16T07:29:06;2.45;;;0.70;;
20794;SDS011;28087;-33.874;151.240;2022-08-16T07:31:44;1.67;;;0.75;;
20794;SDS011;28087;-33.874;151.240;2022-08-16T07:34:23;4.20;;;0.80;;
20794;SDS011;28087;-33.874;151.240;2022-08-16T07:37:06;1.88;;;0.75;;
20794;SDS011;28087;-33.874;151.240;2022-08-16T07:40:00;1.80;;;0.60;;
20794;SDS011;28087;-33.874;151.240;2022-08-16T07:42:44;2.70;;;0.90;;
20794;SDS011;28087;-33.874;151.240;2022-08-16T07:45:25;3.75;;;0.90;;
20794;SDS011;28087;-33.874;151.240;2022-08-16T07:48:03;4.30;;;0.80;;
20794;SDS011;28087;-33.874;151.240;2022-08-16T07:50:46;6.45;;;0.90;;
20794;SDS011;28087;-33.874;151.240;2022-08-16T07:53:32;5.63;;;1.48;;
20794;SDS011;28087;-33.874;151.240;2022-08-16T07:56:14;5.30;;;0.95;;
20794;SDS011;28087;-33.874;151.240;2022-08-16T07:59:04;4.47;;;1.10;;
20794;SDS011;28087;-33.874;151.240;2022-08-16T08:01:44;2.20;;;0.88;;
20794;SDS011;28087;-33.874;151.240;2022-08-16T08:04:27;3.45;;;0.95;;
20794;SDS011;28087;-33.874;151.240;2022-08-16T08:07:08;4.47;;;1.10;;
20794;SDS011;28087;-33.874;151.240;2022-08-16T08:09:45;3.25;;;0.90;;
20794;SDS011;28087;-33.874;151.240;2022-08-16T08:12:21;2.90;;;0.80;;
20794;SDS011;28087;-33.874;151.240;2022-08-16T08:15:07;4.68;;;0.82;;
20794;SDS011;28087;-33.874;151.240;2022-08-16T08:17:57;4.75;;;1.13;;
20794;SDS011;28087;-33.874;151.240;2022-08-16T08:20:53;2.90;;;1.00;;
20794;SDS011;28087;-33.874;151.240;2022-08-16T08:23:33;6.57;;;1.27;;
20794;SDS011;28087;-33.874;151.240;2022-08-16T08:26:11;3.75;;;1.10;;
20794;SDS011;28087;-33.874;151.240;2022-08-16T08:28:50;4.97;;;1.10;;
20794;SDS011;28087;-33.874;151.240;2022-08-16T08:31:30;5.05;;;1.20;;
20794;SDS011;28087;-33.874;151.240;2022-08-16T08:34:13;6.53;;;1.55;;
20794;SDS011;28087;-33.874;151.240;2022-08-16T08:36:49;4.80;;;1.63;;
20794;SDS011;28087;-33.874;151.240;2022-08-16T08:39:38;3.78;;;1.42;;
20794;SDS011;28087;-33.874;151.240;2022-08-16T08:42:24;4.60;;;1.38;;
20794;SDS011;28087;-33.874;151.240;2022-08-16T08:45:04;6.25;;;1.50;;
20794;SDS011;28087;-33.874;151.240;2022-08-16T08:48:06;3.83;;;1.40;;
20794;SDS011;28087;-33.874;151.240;2022-08-16T08:51:09;4.78;;;1.33;;
20794;SDS011;28087;-33.874;151.240;2022-08-16T08:53:58;4.80;;;1.42;;
20794;SDS011;28087;-33.874;151.240;2022-08-16T08:56:37;8.77;;;1.52;;
20794;SDS011;28087;-33.874;151.240;2022-08-16T08:59:29;7.50;;;1.60;;
20794;SDS011;28087;-33.874;151.240;2022-08-16T09:02:13;4.93;;;1.50;;
20794;SDS011;28087;-33.874;151.240;2022-08-16T09:04:57;5.35;;;1.50;;
20794;SDS011;28087;-33.874;151.240;2022-08-16T09:07:54;5.43;;;1.77;;
20794;SDS011;28087;-33.874;151.240;2022-08-16T09:10:47;5.10;;;1.63;;
20794;SDS011;28087;-33.874;151.240;2022-08-16T09:13:32;5.32;;;1.75;;
20794;SDS011;28087;-33.874;151.240;2022-08-16T09:16:18;5.85;;;1.70;;
20794;SDS011;28087;-33.874;151.240;2022-08-16T09:19:16;5.68;;;1.70;;
20794;SDS011;28087;-33.874;151.240;2022-08-16T09:22:02;4.95;;;1.80;;
20794;SDS011;28087;-33.874;151.240;2022-08-16T09:24:52;7.03;;;2.00;;
20794;SDS011;28087;-33.874;151.240;2022-08-16T09:27:42;8.22;;;2.80;;
20794;SDS011;28087;-33.874;151.240;2022-08-16T09:30:32;5.85;;;2.40;;
20794;SDS011;28087;-33.874;151.240;2022-08-16T09:33:15;5.97;;;2.53;;
20794;SDS011;28087;-33.874;151.240;2022-08-16T09:35:52;4.60;;;2.30;;
20794;SDS011;28087;-33.874;151.240;2022-08-16T09:38:32;10.98;;;2.35;;
20794;SDS011;28087;-33.874;151.240;2022-08-16T09:41:11;7.30;;;2.58;;
20794;SDS011;28087;-33.874;151.240;2022-08-16T09:43:50;5.15;;;1.95;;
20794;SDS011;28087;-33.874;151.240;2022-08-16T09:46:48;5.70;;;2.40;;
20794;SDS011;28087;-33.874;151.240;2022-08-16T09:49:28;4.82;;;1.92;;
20794;SDS011;28087;-33.874;151.240;2022-08-16T09:52:09;8.45;;;2.10;;
20794;SDS011;28087;-33.874;151.240;2022-08-16T09:54:50;4.55;;;1.90;;
20794;SDS011;28087;-33.874;151.240;2022-08-16T09:57:29;5.50;;;2.10;;
20794;SDS011;28087;-33.874;151.240;2022-08-16T10:00:09;6.63;;;1.80;;
20794;SDS011;28087;-33.874;151.240;2022-08-16T10:03:07;9.80;;;1.80;;
20794;SDS011;28087;-33.874;151.240;2022-08-16T10:05:45;6.97;;;1.58;;
20794;SDS011;28087;-33.874;151.240;2022-08-16T10:08:24;3.88;;;1.90;;
20794;SDS011;28087;-33.874;151.240;2022-08-16T10:11:22;7.07;;;2.45;;
20794;SDS011;28087;-33.874;151.240;2022-08-16T10:14:21;6.03;;;1.90;;
20794;SDS011;28087;-33.874;151.240;2022-08-16T10:17:03;5.88;;;1.92;;
20794;SDS011;28087;-33.874;151.240;2022-08-16T10:19:43;5.88;;;1.75;;
20794;SDS011;28087;-33.874;151.240;2022-08-16T10:22:23;7.10;;;1.80;;
20794;SDS011;28087;-33.874;151.240;2022-08-16T10:25:02;4.65;;;1.60;;
20794;SDS011;28087;-33.874;151.240;2022-08-16T10:27:58;5.43;;;1.48;;
20794;SDS011;28087;-33.874;151.240;2022-08-16T10:30:56;5.28;;;1.40;;
20794;SDS011;28087;-33.874;151.240;2022-08-16T10:33:33;3.20;;;1.42;;
20794;SDS011;28087;-33.874;151.240;2022-08-16T10:36:12;2.38;;;1.20;;
20794;SDS011;28087;-33.874;151.240;2022-08-16T10:39:07;3.47;;;1.33;;
20794;SDS011;28087;-33.874;151.240;2022-08-16T10:41:46;4.90;;;1.27;;
20794;SDS011;28087;-33.874;151.240;2022-08-16T10:44:23;5.07;;;1.70;;
20794;SDS011;28087;-33.874;151.240;2022-08-16T10:47:06;4.13;;;1.42;;
20794;SDS011;28087;-33.874;151.240;2022-08-16T10:49:46;5.20;;;1.45;;
20794;SDS011;28087;-33.874;151.240;2022-08-16T10:52:22;4.93;;;1.40;;
20794;SDS011;28087;-33.874;151.240;2022-08-16T10:55:01;2.70;;;1.10;;
20794;SDS011;28087;-33.874;151.240;2022-08-16T10:57:58;3.10;;;1.30;;
20794;SDS011;28087;-33.874;151.240;2022-08-16T11:00:40;6.00;;;1.30;;
20794;SDS011;28087;-33.874;151.240;2022-08-16T11:03:19;3.55;;;1.30;;
20794;SDS011;28087;-33.874;151.240;2022-08-16T11:06:15;3.67;;;1.20;;
20794;SDS011;28087;-33.874;151.240;2022-08-16T11:08:56;2.53;;;1.00;;
20794;SDS011;28087;-33.874;151.240;2022-08-16T11:11:53;3.35;;;1.20;;
20794;SDS011;28087;-33.874;151.240;2022-08-16T11:14:43;3.70;;;1.00;;
20794;SDS011;28087;-33.874;151.240;2022-08-16T11:17:40;3.45;;;1.10;;
20794;SDS011;28087;-33.874;151.240;2022-08-16T11:20:41;3.90;;;1.30;;
20794;SDS011;28087;-33.874;151.240;2022-08-16T11:23:19;2.45;;;1.10;;
20794;SDS011;28087;-33.874;151.240;2022-08-16T11:25:58;3.33;;;1.08;;
20794;SDS011;28087;-33.874;151.240;2022-08-16T11:28:54;4.20;;;1.10;;
20794;SDS011;28087;-33.874;151.240;2022-08-16T11:31:48;2.30;;;1.00;;
20794;SDS011;28087;-33.874;151.240;2022-08-16T11:34:24;2.85;;;1.02;;
20794;SDS011;28087;-33.874;151.240;2022-08-16T11:37:23;1.67;;;0.90;;
20794;SDS011;28087;-33.874;151.240;2022-08-16T11:40:22;3.35;;;0.90;;
20794;SDS011;28087;-33.874;151.240;2022-08-16T11:43:02;2.95;;;0.77;;
20794;SDS011;28087;-33.874;151.240;2022-08-16T11:45:39;2.22;;;0.80;;
20794;SDS011;28087;-33.874;151.240;2022-08-16T11:48:24;2.38;;;0.80;;
20794;SDS011;28087;-33.874;151.240;2022-08-16T11:51:03;1.63;;;0.80;;
20794;SDS011;28087;-33.874;151.240;2022-08-16T11:53:43;2.28;;;0.80;;
20794;SDS011;28087;-33.874;151.240;2022-08-16T11:56:23;4.85;;;0.90;;
20794;SDS011;28087;-33.874;151.240;2022-08-16T11:59:20;2.47;;;0.88;;
20794;SDS011;28087;-33.874;151.240;2022-08-16T12:01:58;3.00;;;0.80;;
20794;SDS011;28087;-33.874;151.240;2022-08-16T12:04:56;1.88;;;0.85;;
20794;SDS011;28087;-33.874;151.240;2022-08-16T12:07:34;2.50;;;1.00;;
20794;SDS011;28087;-33.874;151.240;2022-08-16T12:10:14;2.35;;;0.82;;
20794;SDS011;28087;-33.874;151.240;2022-08-16T12:12:56;1.98;;;0.90;;
20794;SDS011;28087;-33.874;151.240;2022-08-16T12:15:32;3.65;;;1.00;;
20794;SDS011;28087;-33.874;151.240;2022-08-16T12:18:11;2.55;;;1.02;;
20794;SDS011;28087;-33.874;151.240;2022-08-16T12:20:49;2.00;;;0.88;;
20794;SDS011;28087;-33.874;151.240;2022-08-16T12:23:28;1.45;;;0.80;;
20794;SDS011;28087;-33.874;151.240;2022-08-16T12:26:06;3.03;;;0.90;;
20794;SDS011;28087;-33.874;151.240;2022-08-16T12:28:42;2.15;;;0.80;;
20794;SDS011;28087;-33.874;151.240;2022-08-16T12:31:23;2.10;;;0.90;;
20794;SDS011;28087;-33.874;151.240;2022-08-16T12:34:00;1.73;;;0.80;;
20794;SDS011;28087;-33.874;151.240;2022-08-16T12:36:47;4.82;;;1.00;;
20794;SDS011;28087;-33.874;151.240;2022-08-16T12:39:25;3.20;;;0.90;;
20794;SDS011;28087;-33.874;151.240;2022-08-16T12:42:03;2.72;;;0.80;;
20794;SDS011;28087;-33.874;151.240;2022-08-16T12:44:46;2.38;;;0.85;;
20794;SDS011;28087;-33.874;151.240;2022-08-16T12:47:22;1.75;;;0.80;;
20794;SDS011;28087;-33.874;151.240;2022-08-16T12:50:15;2.33;;;0.80;;
20794;SDS011;28087;-33.874;151.240;2022-08-16T12:53:02;2.67;;;0.93;;
20794;SDS011;28087;-33.874;151.240;2022-08-16T12:55:40;2.20;;;1.00;;
20794;SDS011;28087;-33.874;151.240;2022-08-16T12:58:18;2.72;;;1.10;;
20794;SDS011;28087;-33.874;151.240;2022-08-16T13:01:16;1.83;;;0.70;;
20794;SDS011;28087;-33.874;151.240;2022-08-16T13:03:57;2.30;;;1.00;;
20794;SDS011;28087;-33.874;151.240;2022-08-16T13:06:49;3.53;;;1.00;;
20794;SDS011;28087;-33.874;151.240;2022-08-16T13:09:27;2.05;;;0.93;;
20794;SDS011;28087;-33.874;151.240;2022-08-16T13:12:10;2.38;;;0.80;;
20794;SDS011;28087;-33.874;151.240;2022-08-16T13:14:55;1.95;;;0.80;;
20794;SDS011;28087;-33.874;151.240;2022-08-16T13:17:32;2.47;;;0.98;;
20794;SDS011;28087;-33.874;151.240;2022-08-16T13:20:12;2.15;;;0.90;;
20794;SDS011;28087;-33.874;151.240;2022-08-16T13:22:52;2.00;;;0.80;;
20794;SDS011;28087;-33.874;151.240;2022-08-16T13:25:39;2.78;;;0.82;;
20794;SDS011;28087;-33.874;151.240;2022-08-16T13:28:18;2.13;;;0.70;;
20794;SDS011;28087;-33.874;151.240;2022-08-16T13:30:58;1.52;;;0.70;;
20794;SDS011;28087;-33.874;151.240;2022-08-16T13:33:36;2.65;;;0.75;;
20794;SDS011;28087;-33.874;151.240;2022-08-16T13:36:14;2.65;;;0.68;;
20794;SDS011;28087;-33.874;151.240;2022-08-16T13:39:10;2.10;;;0.80;;
20794;SDS011;28087;-33.874;151.240;2022-08-16T13:41:50;1.75;;;0.75;;
20794;SDS011;28087;-33.874;151.240;2022-08-16T13:44:27;1.52;;;0.77;;
20794;SDS011;28087;-33.874;151.240;2022-08-16T13:47:25;1.63;;;0.65;;
20794;SDS011;28087;-33.874;151.240;2022-08-16T13:50:02;1.73;;;0.70;;
20794;SDS011;28087;-33.874;151.240;2022-08-16T13:52:42;1.25;;;0.60;;
20794;SDS011;28087;-33.874;151.240;2022-08-16T13:55:24;3.08;;;0.70;;
20794;SDS011;28087;-33.874;151.240;2022-08-16T13:58:01;1.90;;;0.70;;
20794;SDS011;28087;-33.874;151.240;2022-08-16T14:00:59;1.65;;;0.60;;
20794;SDS011;28087;-33.874;151.240;2022-08-16T14:03:40;1.10;;;0.60;;
20794;SDS011;28087;-33.874;151.240;2022-08-16T14:06:23;1.33;;;0.63;;
20794;SDS011;28087;-33.874;151.240;2022-08-16T14:09:01;2.17;;;0.60;;
20794;SDS011;28087;-33.874;151.240;2022-08-16T14:11:37;1.77;;;0.60;;
20794;SDS011;28087;-33.874;151.240;2022-08-16T14:14:15;2.67;;;0.65;;
20794;SDS011;28087;-33.874;151.240;2022-08-16T14:16:57;1.48;;;0.52;;
20794;SDS011;28087;-33.874;151.240;2022-08-16T14:19:40;1.63;;;0.60;;
20794;SDS011;28087;-33.874;151.240;2022-08-16T14:22:17;2.05;;;0.65;;
20794;SDS011;28087;-33.874;151.240;2022-08-16T14:25:03;2.35;;;0.70;;
20794;SDS011;28087;-33.874;151.240;2022-08-16T14:27:47;1.10;;;0.60;;
20794;SDS011;28087;-33.874;151.240;2022-08-16T14:30:25;1.02;;;0.50;;
20794;SDS011;28087;-33.874;151.240;2022-08-16T14:33:02;1.33;;;0.60;;
20794;SDS011;28087;-33.874;151.240;2022-08-16T14:35:41;2.08;;;0.70;;
20794;SDS011;28087;-33.874;151.240;2022-08-16T14:38:21;1.23;;;0.60;;
20794;SDS011;28087;-33.874;151.240;2022-08-16T14:41:08;1.77;;;0.70;;
20794;SDS011;28087;-33.874;151.240;2022-08-16T14:43:44;2.55;;;0.75;;
20794;SDS011;28087;-33.874;151.240;2022-08-16T14:46:22;2.03;;;0.63;;
20794;SDS011;28087;-33.874;151.240;2022-08-16T14:48:59;1.35;;;0.60;;
20794;SDS011;28087;-33.874;151.240;2022-08-16T14:51:40;1.25;;;0.60;;
20794;SDS011;28087;-33.874;151.240;2022-08-16T14:54:22;1.42;;;0.70;;
20794;SDS011;28087;-33.874;151.240;2022-08-16T14:57:01;1.73;;;0.70;;
20794;SDS011;28087;-33.874;151.240;2022-08-16T14:59:38;1.45;;;0.60;;
20794;SDS011;28087;-33.874;151.240;2022-08-16T15:02:17;3.47;;;0.65;;
20794;SDS011;28087;-33.874;151.240;2022-08-16T15:05:03;1.58;;;0.60;;
20794;SDS011;28087;-33.874;151.240;2022-08-16T15:07:45;3.53;;;0.80;;
20794;SDS011;28087;-33.874;151.240;2022-08-16T15:10:23;1.27;;;0.70;;
20794;SDS011;28087;-33.874;151.240;2022-08-16T15:13:02;1.75;;;0.75;;
20794;SDS011;28087;-33.874;151.240;2022-08-16T15:15:41;1.80;;;0.70;;
20794;SDS011;28087;-33.874;151.240;2022-08-16T15:18:28;2.60;;;0.82;;
20794;SDS011;28087;-33.874;151.240;2022-08-16T15:21:06;3.45;;;0.90;;
20794;SDS011;28087;-33.874;151.240;2022-08-16T15:23:45;2.40;;;0.73;;
20794;SDS011;28087;-33.874;151.240;2022-08-16T15:26:23;2.53;;;0.90;;
20794;SDS011;28087;-33.874;151.240;2022-08-16T15:29:13;3.92;;;0.75;;
20794;SDS011;28087;-33.874;151.240;2022-08-16T15:31:51;1.98;;;0.80;;
20794;SDS011;28087;-33.874;151.240;2022-08-16T15:34:31;1.88;;;0.80;;
20794;SDS011;28087;-33.874;151.240;2022-08-16T15:37:16;1.90;;;0.80;;
20794;SDS011;28087;-33.874;151.240;2022-08-16T15:40:15;1.40;;;0.70;;
20794;SDS011;28087;-33.874;151.240;2022-08-16T15:43:03;1.65;;;0.80;;
20794;SDS011;28087;-33.874;151.240;2022-08-16T15:45:45;1.98;;;0.80;;